Time;durP1;ratioP1;P1;durP2;ratioP2;P2;SDS_P1;SDS_P2;PMS_P1;PMS_P2;Temp;Humidity;BMP_temperature;BMP_pressure;BME280_temperature;BME280_humidity;BME280_pressure;Samples;Min_cycle;Max_cycle;Signal;HPM_P1;HPM_P2
2023/03/11 00:00:47;;;;;;;2.05;0.73;;;0.20;99.90;;;;;;5077380;28;20042;-79
2023/03/11 00:03:26;;;;;;;2.20;0.98;;;0.20;99.90;;;;;;5077160;28;20040;-79
2023/03/11 00:06:14;;;;;;;1.08;0.82;;;0.20;99.90;;;;;;5077304;28;20044;-78
2023/03/11 00:08:57;;;;;;;2.10;0.80;;;0.20;99.90;;;;;;5076999;28;20044;-78
2023/03/11 00:11:44;;;;;;;3.70;1.05;;;0.20;99.90;;;;;;5060561;28;20054;-79
2023/03/11 00:14:36;;;;;;;1.40;0.70;;;0.20;99.90;;;;;;5076487;28;20044;-79
2023/03/11 00:17:02;;;;;;;2.05;0.98;;;0.30;99.90;;;;;;5077004;28;20075;-82
2023/03/11 00:19:28;;;;;;;6.75;1.20;;;1.20;99.90;;;;;;5077169;28;20068;-78
2023/03/11 00:22:19;;;;;;;1.30;0.80;;;0.30;99.90;;;;;;5060062;28;20230;-78
2023/03/11 00:24:45;;;;;;;;;;;0.30;99.90;;;;;;5077339;28;20040;-78
2023/03/11 00:27:14;;;;;;;1.38;0.70;;;0.30;99.90;;;;;;5060076;28;19916;-78
2023/03/11 00:29:43;;;;;;;9.07;0.88;;;0.30;99.90;;;;;;5060599;28;20058;-78
2023/03/11 00:32:21;;;;;;;3.63;0.88;;;0.40;99.90;;;;;;5076938;28;20487;-78
2023/03/11 00:34:47;;;;;;;1.50;0.70;;;0.40;99.90;;;;;;5060266;28;20126;-79
2023/03/11 00:37:15;;;;;;;2.97;0.77;;;0.40;99.90;;;;;;5076670;28;20127;-80
2023/03/11 00:39:53;;;;;;;1.08;0.50;;;0.40;99.90;;;;;;5059600;28;20403;-79
2023/03/11 00:42:48;;;;;;;3.30;0.80;;;0.60;99.90;;;;;;5059796;28;20407;-78
2023/03/11 00:45:52;;;;;;;7.10;1.20;;;0.80;99.90;;;;;;5006881;28;20199;-78
2023/03/11 00:48:27;;;;;;;1.27;0.57;;;0.30;99.90;;;;;;5077118;28;20488;-78
2023/03/11 00:51:02;;;;;;;2.28;0.90;;;0.30;99.90;;;;;;5076621;28;20039;-78
2023/03/11 00:53:38;;;;;;;2.38;1.00;;;0.30;99.90;;;;;;5076778;28;20043;-78
2023/03/11 00:56:22;;;;;;;2.17;0.98;;;0.20;99.90;;;;;;5059808;28;20079;-78
2023/03/11 00:58:55;;;;;;;1.90;0.52;;;0.30;99.90;;;;;;5076531;28;20047;-78
2023/03/11 01:01:30;;;;;;;4.28;1.35;;;0.30;99.90;;;;;;5076486;28;20048;-79
2023/03/11 01:03:59;;;;;;;3.40;0.85;;;0.20;99.90;;;;;;5075927;28;20514;-79
2023/03/11 01:06:45;;;;;;;1.85;0.60;;;0.20;99.90;;;;;;5076244;28;20118;-78
2023/03/11 01:09:20;;;;;;;2.92;0.80;;;0.20;99.90;;;;;;5058990;28;20039;-78
2023/03/11 01:11:50;;;;;;;7.70;0.90;;;0.20;99.90;;;;;;5059587;28;20127;-78
2023/03/11 01:14:22;;;;;;;2.25;0.77;;;0.20;99.90;;;;;;5059405;28;20079;-79
2023/03/11 01:20:25;;;;;;;1.80;0.57;;;0.20;99.90;;;;;;5022481;28;20048;-78
2023/03/11 01:23:04;;;;;;;1.42;0.50;;;1.10;99.90;;;;;;5074342;28;20583;-78
2023/03/11 01:25:30;;;;;;;3.03;0.50;;;0.20;99.90;;;;;;5077867;28;20035;-78
2023/03/11 01:27:55;;;;;;;3.13;0.65;;;0.60;99.90;;;;;;5077914;28;20039;-78
2023/03/11 01:30:23;;;;;;;1.38;0.60;;;0.70;99.90;;;;;;5078325;28;20558;-78
2023/03/11 01:33:19;;;;;;;3.60;0.55;;;0.20;99.90;;;;;;5094924;28;20044;-78
2023/03/11 01:35:55;;;;;;;1.05;0.43;;;0.90;99.90;;;;;;5076150;28;20043;-78
2023/03/11 01:38:30;;;;;;;2.13;0.38;;;0.20;99.90;;;;;;5059421;28;20052;-78
2023/03/11 01:40:59;;;;;;;0.85;0.73;;;0.20;99.90;;;;;;5058713;28;20531;-78
2023/03/11 01:43:43;;;;;;;0.50;0.30;;;0.20;99.90;;;;;;5072108;28;20109;-78
2023/03/11 01:46:29;;;;;;;1.02;0.40;;;0.20;99.90;;;;;;5072015;28;20043;-78
2023/03/11 01:49:05;;;;;;;2.72;1.15;;;0.20;99.90;;;;;;5072247;28;20036;-78
2023/03/11 01:51:40;;;;;;;1.95;0.68;;;0.20;99.90;;;;;;5069866;28;20048;-77
2023/03/11 01:54:10;;;;;;;1.63;0.57;;;0.20;99.90;;;;;;5072041;28;20051;-78
2023/03/11 01:56:37;;;;;;;1.52;0.70;;;0.20;99.90;;;;;;5072029;28;20048;-78
2023/03/11 01:59:21;;;;;;;1.23;0.55;;;0.10;99.90;;;;;;5072157;28;20044;-79
2023/03/11 02:02:16;;;;;;;2.47;0.43;;;0.10;99.90;;;;;;5055883;28;20047;-79
2023/03/11 02:04:49;;;;;;;1.70;0.63;;;1.40;99.90;;;;;;5047944;28;20048;-78
2023/03/11 02:07:15;;;;;;;2.28;0.93;;;0.10;99.90;;;;;;5055564;28;20063;-77
2023/03/11 02:09:45;;;;;;;1.98;0.77;;;0.10;99.90;;;;;;5072738;28;20563;-77
2023/03/11 02:12:35;;;;;;;1.02;0.40;;;0.10;99.90;;;;;;5073080;28;20043;-77
2023/03/11 02:15:23;;;;;;;1.23;0.40;;;0.10;99.90;;;;;;5072807;28;20464;-77
2023/03/11 02:17:55;;;;;;;2.45;0.70;;;0.10;99.90;;;;;;5072451;28;20283;-77
2023/03/11 02:20:23;;;;;;;2.03;0.70;;;0.00;99.90;;;;;;5072177;28;20044;-77
2023/03/11 02:22:50;;;;;;;1.98;0.35;;;0.00;99.90;;;;;;5073196;28;20044;-77
2023/03/11 02:25:41;;;;;;;0.40;0.30;;;0.00;99.90;;;;;;5073584;28;20048;-76
2023/03/11 02:28:39;;;;;;;0.65;0.60;;;0.50;99.90;;;;;;5076179;28;20037;-77
2023/03/11 02:31:36;;;;;;;1.35;0.50;;;-0.10;99.90;;;;;;5056001;28;20040;-77
2023/03/11 02:34:21;;;;;;;0.30;0.30;;;-0.10;99.90;;;;;;5074515;28;20028;-78
2023/03/11 02:37:08;;;;;;;0.57;0.40;;;-0.20;99.90;;;;;;5074163;28;20108;-77
2023/03/11 02:39:56;;;;;;;1.73;0.70;;;-0.30;99.90;;;;;;5075900;28;20396;-76
2023/03/11 02:42:38;;;;;;;0.52;0.40;;;-0.30;99.90;;;;;;5083994;28;20094;-78
2023/03/11 02:45:07;;;;;;;2.80;0.57;;;;;;;;;;5062873;28;20123;-76
2023/03/11 02:47:45;;;;;;;2.33;1.05;;;-0.40;99.90;;;;;;5079981;28;20071;-77
2023/03/11 02:50:19;;;;;;;1.88;0.68;;;0.10;99.90;;;;;;5079869;28;20036;-78
2023/03/11 02:53:08;;;;;;;1.65;0.50;;;-0.40;99.90;;;;;;5063296;28;20051;-78
2023/03/11 02:55:37;;;;;;;1.10;0.70;;;-0.50;99.90;;;;;;5079593;28;20109;-78
2023/03/11 02:58:14;;;;;;;1.05;0.70;;;-0.60;99.90;;;;;;5063022;28;20032;-77
2023/03/11 03:00:49;;;;;;;1.60;0.50;;;-0.50;99.90;;;;;;5062654;28;20052;-71
2023/03/11 03:03:24;;;;;;;2.00;0.60;;;-0.50;99.90;;;;;;5074287;28;20574;-70
2023/03/11 03:05:50;;;;;;;1.20;0.85;;;-0.50;99.90;;;;;;5067081;22;20055;-66
2023/03/11 03:08:15;;;;;;;0.43;0.32;;;-0.50;99.90;;;;;;5067020;28;20041;-67
2023/03/11 03:10:41;;;;;;;0.50;0.50;;;-0.50;99.90;;;;;;5092526;28;20119;-67
2023/03/11 03:13:07;;;;;;;2.40;0.40;;;-0.50;99.90;;;;;;5092729;28;20475;-67
2023/03/11 03:15:32;;;;;;;0.45;0.45;;;-0.60;99.90;;;;;;5092472;28;20047;-67
2023/03/11 03:17:58;;;;;;;2.63;0.60;;;-0.70;99.90;;;;;;5092730;28;20589;-67
2023/03/11 03:20:25;;;;;;;0.98;0.50;;;-0.70;99.90;;;;;;5092720;28;20067;-66
2023/03/11 03:22:51;;;;;;;1.20;0.60;;;-0.80;99.90;;;;;;5092276;28;20040;-67
2023/03/11 03:25:17;;;;;;;4.53;0.50;;;-0.90;99.90;;;;;;5092305;28;20044;-66
2023/03/11 03:27:43;;;;;;;1.50;0.80;;;-1.00;99.90;;;;;;5092311;28;20090;-66
2023/03/11 03:30:09;;;;;;;1.02;0.28;;;-1.00;99.90;;;;;;5092563;28;20036;-67
2023/03/11 03:32:35;;;;;;;0.90;0.63;;;-1.10;99.90;;;;;;5095304;28;20040;-66
2023/03/11 03:35:02;;;;;;;1.13;0.70;;;-1.20;99.90;;;;;;5095785;28;20121;-67
2023/03/11 03:37:30;;;;;;;5.57;0.82;;;-1.20;99.90;;;;;;5096182;28;20457;-68
2023/03/11 03:39:56;;;;;;;1.67;0.70;;;-1.30;99.90;;;;;;5095827;28;20040;-66
2023/03/11 03:42:24;;;;;;;1.63;0.70;;;-1.30;99.90;;;;;;5095716;28;20154;-67
2023/03/11 03:44:51;;;;;;;0.52;0.35;;;-1.30;99.90;;;;;;5095463;28;20048;-67
2023/03/11 03:47:17;;;;;;;7.68;0.80;;;-1.40;99.90;;;;;;5095918;28;20036;-67
2023/03/11 03:49:42;;;;;;;0.38;0.30;;;-1.40;99.90;;;;;;5060840;28;20395;-67
2023/03/11 03:52:09;;;;;;;1.35;0.57;;;-1.40;99.90;;;;;;5095565;28;20032;-66
2023/03/11 03:54:35;;;;;;;0.77;0.50;;;-1.50;99.90;;;;;;5095824;28;20035;-67
2023/03/11 03:57:01;;;;;;;1.67;0.70;;;-1.50;99.90;;;;;;5095864;28;20032;-67
2023/03/11 03:59:27;;;;;;;2.75;0.47;;;-1.50;99.90;;;;;;5095574;28;20032;-67
2023/03/11 04:01:52;;;;;;;1.63;1.52;;;-1.60;99.90;;;;;;5095635;28;20089;-67
2023/03/11 04:04:18;;;;;;;0.30;0.30;;;-1.60;99.90;;;;;;5095391;28;20131;-66
2023/03/11 04:06:44;;;;;;;0.73;0.60;;;-1.70;99.90;;;;;;5095603;28;20111;-66
2023/03/11 04:09:10;;;;;;;0.80;0.70;;;-1.70;99.90;;;;;;5095533;28;20494;-66
2023/03/11 04:11:37;;;;;;;4.10;0.38;;;-1.70;99.90;;;;;;5095512;28;20043;-66
2023/03/11 04:14:04;;;;;;;1.60;0.50;;;-1.80;99.90;;;;;;5095437;28;20043;-66
2023/03/11 04:16:30;;;;;;;1.00;0.47;;;-1.80;99.90;;;;;;5095383;28;20032;-66
2023/03/11 04:18:56;;;;;;;0.30;0.30;;;-1.80;99.90;;;;;;5077073;28;20044;-66
2023/03/11 04:21:22;;;;;;;1.42;0.45;;;-1.80;99.90;;;;;;5095251;28;20089;-67
2023/03/11 04:23:47;;;;;;;1.88;0.77;;;-1.80;99.90;;;;;;5095151;28;20032;-66
2023/03/11 04:26:13;;;;;;;2.03;0.80;;;-1.80;99.90;;;;;;5076743;28;20468;-66
2023/03/11 04:28:39;;;;;;;6.88;1.05;;;-1.80;99.90;;;;;;5094764;28;20043;-66
2023/03/11 04:31:04;;;;;;;0.63;0.60;;;-1.90;99.90;;;;;;5095093;28;20040;-67
2023/03/11 04:33:30;;;;;;;2.28;0.65;;;-1.80;99.90;;;;;;5095068;28;20093;-66
2023/03/11 04:35:56;;;;;;;0.77;0.68;;;-1.90;99.90;;;;;;5076897;28;20398;-66
2023/03/11 04:38:21;;;;;;;0.82;0.70;;;-1.90;99.90;;;;;;5076564;28;20086;-67
2023/03/11 04:40:47;;;;;;;1.70;1.13;;;-1.90;99.90;;;;;;5094956;28;20075;-67
2023/03/11 04:43:13;;;;;;;2.15;0.85;;;-1.90;99.90;;;;;;5093902;28;20453;-67
2023/03/11 04:45:39;;;;;;;3.13;0.80;;;-1.90;99.90;;;;;;5094570;28;20093;-66
2023/03/11 04:48:05;;;;;;;8.40;1.00;;;-1.90;99.90;;;;;;5094751;28;20032;-67
2023/03/11 04:50:31;;;;;;;1.48;0.88;;;-1.80;99.90;;;;;;5094142;28;20040;-66
2023/03/11 04:52:57;;;;;;;1.23;0.73;;;-1.90;99.90;;;;;;5076316;28;20043;-66
2023/03/11 04:55:23;;;;;;;1.65;0.70;;;-1.80;99.90;;;;;;5094331;28;20036;-66
2023/03/11 04:57:49;;;;;;;0.80;0.70;;;-1.90;99.90;;;;;;5059558;28;20036;-66
2023/03/11 05:00:15;;;;;;;0.57;0.50;;;-1.90;99.90;;;;;;5094611;28;20455;-66
2023/03/11 05:02:41;;;;;;;1.35;0.90;;;-1.90;99.90;;;;;;5094545;28;20040;-66
2023/03/11 05:05:09;;;;;;;2.05;0.95;;;-2.00;99.90;;;;;;5094105;28;20055;-66
2023/03/11 05:07:35;;;;;;;0.57;0.57;;;-2.00;99.90;;;;;;5076103;28;20040;-66
2023/03/11 05:10:02;;;;;;;1.48;0.52;;;-2.00;99.90;;;;;;5094395;28;20032;-66
2023/03/11 05:12:28;;;;;;;0.85;0.52;;;-2.00;99.90;;;;;;5094650;28;20093;-66
2023/03/11 05:14:53;;;;;;;0.25;0.25;;;-2.10;99.90;;;;;;5075849;28;20489;-66
2023/03/11 05:17:19;;;;;;;2.30;1.00;;;-2.10;99.90;;;;;;5094230;28;20040;-66
2023/03/11 05:19:45;;;;;;;1.20;0.60;;;-2.10;99.90;;;;;;5093973;28;20517;-66
2023/03/11 05:22:11;;;;;;;1.17;0.70;;;-2.10;99.90;;;;;;5075469;28;20047;-67
2023/03/11 05:24:37;;;;;;;0.50;0.50;;;-2.10;99.90;;;;;;5076050;28;20111;-66
2023/03/11 05:27:04;;;;;;;0.57;0.57;;;-2.20;99.90;;;;;;5075373;28;20133;-66
2023/03/11 05:29:29;;;;;;;0.60;0.60;;;-2.20;99.90;;;;;;5093616;28;20040;-66
2023/03/11 05:31:55;;;;;;;0.77;0.63;;;-2.20;99.90;;;;;;5093978;28;20379;-66
2023/03/11 05:34:20;;;;;;;1.20;0.40;;;-2.20;99.90;;;;;;5093526;28;20127;-66
2023/03/11 05:36:46;;;;;;;0.73;0.55;;;-2.20;99.90;;;;;;5093883;28;20453;-66
2023/03/11 05:39:12;;;;;;;1.67;0.60;;;-2.20;99.90;;;;;;5093779;28;20036;-66
2023/03/11 05:41:38;;;;;;;2.38;0.70;;;-2.30;99.90;;;;;;5093308;28;20039;-67
2023/03/11 05:44:03;;;;;;;0.93;0.68;;;-2.30;99.90;;;;;;5093669;28;20071;-66
2023/03/11 05:46:29;;;;;;;2.33;1.02;;;-2.30;99.90;;;;;;5093704;28;20097;-66
2023/03/11 05:48:55;;;;;;;0.52;0.52;;;-2.30;99.90;;;;;;5093413;28;20564;-67
2023/03/11 05:51:20;;;;;;;0.50;0.50;;;-2.30;99.90;;;;;;5093288;28;20032;-66
2023/03/11 05:53:48;;;;;;;1.85;0.60;;;-2.30;99.90;;;;;;5093046;28;20036;-66
2023/03/11 05:56:14;;;;;;;1.55;0.73;;;-2.30;99.90;;;;;;5093555;28;20058;-66
2023/03/11 05:58:40;;;;;;;2.15;0.43;;;-2.40;99.90;;;;;;5093030;28;20083;-66
2023/03/11 06:01:11;;;;;;;1.48;0.63;;;-2.40;99.90;;;;;;5093451;28;20032;-66
2023/03/11 06:03:38;;;;;;;1.10;0.68;;;-2.40;99.90;;;;;;5093410;28;20048;-66
2023/03/11 06:06:05;;;;;;;0.43;0.43;;;-1.00;99.90;;;;;;5092989;28;20059;-66
2023/03/11 06:08:33;;;;;;;0.75;0.50;;;-2.50;99.90;;;;;;5093327;28;20055;-66
2023/03/11 06:11:07;;;;;;;6.90;0.68;;;-2.50;99.90;;;;;;5092960;28;20050;-66
2023/03/11 06:13:33;;;;;;;0.40;0.40;;;-2.50;99.90;;;;;;5074927;28;20051;-66
2023/03/11 06:15:59;;;;;;;0.38;0.32;;;-2.50;99.90;;;;;;5093270;28;20479;-66
2023/03/11 06:18:25;;;;;;;0.38;0.38;;;-2.50;99.90;;;;;;5093295;28;20442;-66
2023/03/11 06:20:51;;;;;;;1.75;0.60;;;-2.50;99.90;;;;;;5093215;28;20047;-66
2023/03/11 06:23:17;;;;;;;0.68;0.60;;;-2.50;99.90;;;;;;5093076;28;20072;-66
2023/03/11 06:25:43;;;;;;;1.52;0.75;;;-2.40;99.90;;;;;;5093233;28;20594;-73
2023/03/11 06:28:08;;;;;;;0.98;0.73;;;-2.50;99.90;;;;;;5074814;28;20124;-66
2023/03/11 06:30:34;;;;;;;0.20;0.20;;;-2.50;99.90;;;;;;5093158;28;20032;-66
2023/03/11 06:33:00;;;;;;;0.45;0.45;;;-2.50;99.90;;;;;;5093075;28;20043;-66
2023/03/11 06:35:25;;;;;;;0.73;0.70;;;-2.40;99.90;;;;;;5074408;28;20132;-66
2023/03/11 06:37:51;;;;;;;0.55;0.55;;;-2.40;99.90;;;;;;5093102;28;20425;-66
2023/03/11 06:40:17;;;;;;;0.30;0.30;;;-2.40;99.90;;;;;;5092680;28;20040;-66
2023/03/11 06:42:46;;;;;;;1.02;0.70;;;-2.30;99.90;;;;;;5092611;28;20040;-66
2023/03/11 06:45:12;;;;;;;0.88;0.60;;;-2.30;99.90;;;;;;5092600;28;20037;-66
2023/03/11 06:47:38;;;;;;;1.95;1.65;;;-2.20;99.90;;;;;;5074212;28;20036;-66
2023/03/11 06:50:06;;;;;;;5.05;0.95;;;-2.20;99.90;;;;;;5092916;28;20475;-67
2023/03/11 06:52:32;;;;;;;1.10;0.50;;;-2.10;99.90;;;;;;5092915;28;20042;-66
2023/03/11 06:54:57;;;;;;;1.45;0.65;;;-2.10;99.90;;;;;;5092544;28;20534;-67
2023/03/11 06:57:23;;;;;;;0.75;0.60;;;-2.00;99.90;;;;;;5092550;28;20044;-67
2023/03/11 06:59:49;;;;;;;1.98;0.70;;;-1.90;99.90;;;;;;5074340;28;20040;-67
2023/03/11 07:02:15;;;;;;;2.33;0.75;;;-1.90;99.90;;;;;;5092370;28;20390;-66
2023/03/11 07:04:40;;;;;;;1.40;0.70;;;-1.80;99.90;;;;;;5074326;28;20079;-67
2023/03/11 07:07:06;;;;;;;2.30;0.82;;;-1.70;99.90;;;;;;5094947;28;20032;-68
2023/03/11 07:09:31;;;;;;;1.15;0.50;;;-1.60;99.90;;;;;;5078518;28;20044;-66
2023/03/11 07:11:57;;;;;;;0.55;0.47;;;-1.50;99.90;;;;;;5096376;28;20040;-67
2023/03/11 07:14:23;;;;;;;0.70;0.70;;;-1.50;99.90;;;;;;5096559;28;20032;-67
2023/03/11 07:16:48;;;;;;;3.03;0.52;;;-1.40;99.90;;;;;;5096120;28;20085;-67
2023/03/11 07:19:14;;;;;;;1.70;0.85;;;-1.30;99.90;;;;;;5096527;28;20501;-66
2023/03/11 07:21:40;;;;;;;0.60;0.45;;;-1.20;99.90;;;;;;5096087;28;20392;-66
2023/03/11 07:24:06;;;;;;;0.63;0.50;;;-1.10;99.90;;;;;;5096076;28;20394;-66
2023/03/11 07:26:33;;;;;;;0.43;0.40;;;-0.60;99.90;;;;;;5078270;28;20047;-74
2023/03/11 07:29:00;;;;;;;0.75;0.50;;;-1.00;99.90;;;;;;5095987;28;20088;-67
2023/03/11 07:31:28;;;;;;;1.90;0.47;;;-0.90;99.90;;;;;;5096279;28;20395;-67
2023/03/11 07:33:57;;;;;;;0.40;0.38;;;-0.80;99.90;;;;;;5096189;28;20032;-67
2023/03/11 07:36:24;;;;;;;2.33;0.80;;;-0.60;99.90;;;;;;5095714;28;20036;-68
2023/03/11 07:38:58;;;;;;;0.57;0.50;;;-0.50;99.90;;;;;;5096151;28;20032;-68
2023/03/11 07:41:25;;;;;;;1.65;0.60;;;-0.40;99.90;;;;;;5095996;28;20483;-69
2023/03/11 07:43:55;;;;;;;3.15;0.93;;;-0.30;99.90;;;;;;5096001;28;20076;-67
2023/03/11 07:46:22;;;;;;;2.85;0.68;;;-0.20;99.90;;;;;;5077519;28;20036;-67
2023/03/11 07:48:49;;;;;;;0.55;0.50;;;-0.10;99.90;;;;;;5095968;28;20115;-69
2023/03/11 07:51:19;;;;;;;4.97;0.68;;;0.00;99.90;;;;;;5095945;28;20372;-66
2023/03/11 07:53:46;;;;;;;2.00;0.70;;;0.00;99.90;;;;;;5095850;28;20040;-67
2023/03/11 07:56:12;;;;;;;0.73;0.52;;;0.20;99.90;;;;;;5095438;28;20047;-67
2023/03/11 07:58:39;;;;;;;3.50;0.65;;;;;;;;;;5095330;28;20403;-67
2023/03/11 08:01:16;;;;;;;2.40;0.60;;;0.40;99.90;;;;;;5095171;28;20117;-69
2023/03/11 08:03:44;;;;;;;2.80;0.90;;;0.40;99.90;;;;;;5077133;28;20040;-68
2023/03/11 08:06:24;;;;;;;1.75;0.73;;;0.50;99.90;;;;;;5076920;28;20047;-68
2023/03/11 08:08:50;;;;;;;1.75;0.60;;;0.60;99.90;;;;;;5095533;28;20052;-67
2023/03/11 08:11:19;;;;;;;0.68;0.52;;;0.80;99.90;;;;;;5095446;28;20054;-67
2023/03/11 08:13:46;;;;;;;0.73;0.40;;;0.90;99.90;;;;;;5077275;28;20044;-67
2023/03/11 08:16:14;;;;;;;0.85;0.68;;;1.00;99.90;;;;;;5095357;28;20110;-67
2023/03/11 08:18:40;;;;;;;1.40;0.70;;;1.10;99.90;;;;;;5094680;28;20399;-67
2023/03/11 08:21:08;;;;;;;4.57;0.68;;;1.10;99.90;;;;;;5095218;28;20044;-66
2023/03/11 08:23:34;;;;;;;0.88;0.68;;;1.20;99.90;;;;;;5095142;28;20473;-67
2023/03/11 08:26:12;;;;;;;0.60;0.50;;;1.30;99.90;;;;;;5094817;28;20531;-67
2023/03/11 08:28:37;;;;;;;0.77;0.52;;;1.40;99.90;;;;;;5095138;28;20036;-68
2023/03/11 08:31:11;;;;;;;2.70;0.40;;;1.50;99.90;;;;;;5095096;28;20375;-67
2023/03/11 08:33:37;;;;;;;1.08;0.75;;;1.60;99.90;;;;;;5094804;28;20093;-66
2023/03/11 08:36:03;;;;;;;2.08;0.77;;;1.70;99.90;;;;;;5094906;28;20036;-68
2023/03/11 08:38:28;;;;;;;5.57;0.70;;;1.70;99.90;;;;;;5094314;28;20036;-67
2023/03/11 08:40:54;;;;;;;0.63;0.43;;;1.80;99.90;;;;;;5094918;28;20032;-66
2023/03/11 08:43:19;;;;;;;0.73;0.55;;;1.80;99.90;;;;;;5076425;28;20501;-67
2023/03/11 08:45:45;;;;;;;3.53;0.80;;;1.90;99.90;;;;;;5094842;28;20391;-73
2023/03/11 08:48:11;;;;;;;1.80;0.47;;;2.00;99.90;;;;;;5076661;28;20131;-67
2023/03/11 08:50:40;;;;;;;2.05;0.88;;;2.10;99.90;;;;;;5094772;28;20107;-66
2023/03/11 08:53:06;;;;;;;3.50;0.70;;;2.20;99.90;;;;;;5076389;28;20141;-66
2023/03/11 08:55:31;;;;;;;2.25;0.77;;;2.30;99.90;;;;;;5094717;28;20127;-66
2023/03/11 08:57:57;;;;;;;0.57;0.40;;;2.30;99.90;;;;;;5094678;28;20376;-67
2023/03/11 09:00:23;;;;;;;0.77;0.70;;;2.40;99.90;;;;;;5094569;28;20032;-66
2023/03/11 09:02:48;;;;;;;3.05;0.45;;;2.40;99.90;;;;;;5094100;28;20532;-66
2023/03/11 09:05:14;;;;;;;5.95;1.00;;;2.50;99.90;;;;;;5094237;28;20507;-66
2023/03/11 09:07:40;;;;;;;1.58;0.82;;;2.60;99.90;;;;;;5094262;28;20097;-66
2023/03/11 09:10:06;;;;;;;1.55;0.43;;;2.70;99.90;;;;;;5094177;28;20521;-67
2023/03/11 09:12:32;;;;;;;2.17;0.40;;;2.80;99.90;;;;;;5094067;28;20044;-67
2023/03/11 09:14:58;;;;;;;1.48;0.73;;;2.80;99.90;;;;;;5094423;28;20537;-66
2023/03/11 09:17:23;;;;;;;0.98;0.60;;;2.90;99.90;;;;;;5093775;28;20054;-67
2023/03/11 09:19:49;;;;;;;2.30;0.90;;;3.00;99.90;;;;;;5094274;28;20372;-67
2023/03/11 09:22:15;;;;;;;2.47;0.80;;;3.10;99.90;;;;;;5094085;28;20479;-66
2023/03/11 09:24:41;;;;;;;0.60;0.50;;;3.30;99.90;;;;;;5093437;28;20135;-67
2023/03/11 09:27:08;;;;;;;1.60;0.80;;;3.20;99.90;;;;;;5094086;28;20127;-75
2023/03/11 09:29:34;;;;;;;3.05;0.77;;;5.20;99.90;;;;;;5074751;28;20040;-78
2023/03/11 09:31:59;;;;;;;2.13;0.63;;;3.40;99.90;;;;;;5075348;28;20038;-78
2023/03/11 09:34:25;;;;;;;0.60;0.60;;;3.50;99.90;;;;;;5075542;28;20040;-67
2023/03/11 09:36:50;;;;;;;1.88;0.82;;;3.60;99.90;;;;;;5093896;28;20047;-66
2023/03/11 09:39:16;;;;;;;1.42;0.85;;;3.70;99.90;;;;;;5093186;28;20034;-69
2023/03/11 09:41:56;;;;;;;3.83;0.90;;;3.70;99.90;;;;;;5093750;28;20413;-68
2023/03/11 09:44:35;;;;;;;0.90;0.68;;;3.80;99.90;;;;;;5093752;28;20036;-66
2023/03/11 09:47:23;;;;;;;2.03;0.80;;;3.80;99.90;;;;;;5093362;28;20039;-65
2023/03/11 09:49:51;;;;;;;1.67;0.80;;;3.90;99.90;;;;;;5093716;28;20118;-65
2023/03/11 09:52:26;;;;;;;2.47;1.00;;;4.00;99.90;;;;;;5075518;28;20380;-66
2023/03/11 09:54:54;;;;;;;0.82;0.77;;;4.10;99.90;;;;;;5093582;28;20083;-68
2023/03/11 09:57:32;;;;;;;1.88;1.00;;;4.20;99.90;;;;;;5075010;28;20043;-66
2023/03/11 10:00:00;;;;;;;3.22;0.70;;;4.20;99.90;;;;;;5093436;28;20032;-67
2023/03/11 10:02:26;;;;;;;0.68;0.50;;;4.40;99.90;;;;;;5093348;28;20036;-67
2023/03/11 10:05:19;;;;;;;2.80;1.15;;;4.50;99.90;;;;;;5093140;28;20052;-66
2023/03/11 10:07:50;;;;;;;0.40;0.40;;;4.50;99.90;;;;;;5093404;28;20124;-67
2023/03/11 10:10:16;;;;;;;2.28;0.70;;;4.50;99.90;;;;;;5093301;28;20119;-64
2023/03/11 10:12:57;;;;;;;1.90;0.82;;;4.60;99.90;;;;;;5093026;28;20090;-64
2023/03/11 10:16:05;;;;;;;1.03;0.67;;;4.80;99.90;;;;;;5093195;28;20123;-67
2023/03/11 10:18:51;;;;;;;1.38;0.80;;;4.90;99.90;;;;;;5064465;28;20182;-67
2023/03/11 10:21:40;;;;;;;2.72;0.52;;;5.00;99.90;;;;;;5092951;28;20040;-67
2023/03/11 10:24:29;;;;;;;1.02;0.82;;;5.00;99.90;;;;;;5093170;28;20040;-69
2023/03/11 10:27:00;;;;;;;1.17;0.80;;;5.00;99.90;;;;;;5092838;28;20036;-66
2023/03/11 10:29:55;;;;;;;1.65;0.82;;;5.10;99.90;;;;;;5092822;28;20040;-69
2023/03/11 10:32:44;;;;;;;1.48;0.90;;;5.10;99.90;;;;;;5093129;28;20434;-66
2023/03/11 10:35:23;;;;;;;1.52;1.42;;;5.10;99.90;;;;;;5074435;28;20036;-66
2023/03/11 10:38:06;;;;;;;2.97;0.77;;;5.20;99.90;;;;;;5074743;28;20399;-70
2023/03/11 10:40:35;;;;;;;1.83;0.80;;;5.20;99.90;;;;;;5094161;28;20040;-67
2023/03/11 10:43:08;;;;;;;1.77;0.77;;;5.20;99.90;;;;;;5097137;28;20040;-68
2023/03/11 10:45:40;;;;;;;1.35;0.50;;;5.20;99.90;;;;;;5097182;28;20036;-67
2023/03/11 10:48:16;;;;;;;0.50;0.50;;;5.30;99.90;;;;;;5097096;28;20437;-67
2023/03/11 10:50:51;;;;;;;0.63;0.60;;;5.30;99.90;;;;;;5096978;28;20075;-67
2023/03/11 10:53:18;;;;;;;0.57;0.57;;;5.40;76.40;;;;;;5096752;28;20101;-69
2023/03/11 10:55:50;;;;;;;2.83;0.82;;;5.40;82.20;;;;;;5078519;28;20451;-69
2023/03/11 10:58:23;;;;;;;2.20;0.82;;;5.40;76.80;;;;;;5096907;28;20407;-67
2023/03/11 11:01:15;;;;;;;1.05;0.70;;;5.50;68.90;;;;;;5096642;28;20090;-67
2023/03/11 11:03:42;;;;;;;0.77;0.65;;;5.90;72.80;;;;;;5096510;28;20050;-72
2023/03/11 11:06:20;;;;;;;0.70;0.70;;;5.40;41.30;;;;;;5078028;28;20455;-67
2023/03/11 11:08:46;;;;;;;1.60;0.60;;;5.50;52.90;;;;;;5096676;28;20044;-72
2023/03/11 11:11:21;;;;;;;3.13;1.05;;;5.50;33.60;;;;;;5078135;28;20180;-72
2023/03/11 11:13:59;;;;;;;1.15;0.70;;;5.50;51.20;;;;;;5078497;28;20051;-71
2023/03/11 11:16:25;;;;;;;0.75;0.75;;;5.70;68.20;;;;;;5078034;28;20048;-69
2023/03/11 11:19:02;;;;;;;5.28;0.98;;;5.60;44.90;;;;;;5078190;28;20407;-66
2023/03/11 11:21:38;;;;;;;2.17;0.90;;;5.60;42.90;;;;;;5061206;28;20044;-68
2023/03/11 11:24:13;;;;;;;4.43;1.00;;;5.60;19.90;;;;;;5096150;28;20044;-68
2023/03/11 11:26:38;;;;;;;0.73;0.73;;;5.50;1.00;;;;;;5077770;28;20047;-67
2023/03/11 11:29:11;;;;;;;1.65;0.60;;;5.60;1.00;;;;;;5095953;28;20471;-68
2023/03/11 11:31:39;;;;;;;3.00;0.70;;;5.60;14.80;;;;;;5096228;28;20051;-67
2023/03/11 11:34:28;;;;;;;1.55;0.55;;;5.70;2.90;;;;;;5096844;28;20107;-70
2023/03/11 11:36:56;;;;;;;0.93;0.75;;;5.90;32.00;;;;;;5096251;28;20036;-68
2023/03/11 11:39:24;;;;;;;1.02;0.60;;;6.00;1.00;;;;;;5096336;28;20122;-75
2023/03/11 11:41:51;;;;;;;1.90;0.77;;;6.10;1.00;;;;;;5095922;28;20047;-73
2023/03/11 11:44:20;;;;;;;0.40;0.40;;;6.20;1.00;;;;;;5096127;28;20032;-67
2023/03/11 11:46:54;;;;;;;3.15;0.52;;;6.30;1.00;;;;;;5095681;28;20072;-67
2023/03/11 11:49:27;;;;;;;1.40;0.93;;;6.30;1.00;;;;;;5095598;28;20044;-67
2023/03/11 11:52:05;;;;;;;1.25;0.50;;;6.50;1.00;;;;;;5076439;28;20047;-67
2023/03/11 11:54:53;;;;;;;1.05;0.68;;;6.50;1.00;;;;;;5095899;28;20052;-67
2023/03/11 11:57:20;;;;;;;4.22;0.82;;;6.50;1.00;;;;;;5095839;28;20536;-67
2023/03/11 11:59:46;;;;;;;1.45;0.75;;;6.60;1.00;;;;;;5095427;28;20119;-67
2023/03/11 12:02:18;;;;;;;0.88;0.50;;;6.60;1.00;;;;;;5095471;28;20430;-67
2023/03/11 12:04:59;;;;;;;1.73;0.50;;;6.70;99.90;;;;;;5095232;28;20059;-68
2023/03/11 12:07:56;;;;;;;2.13;0.55;;;6.60;99.90;;;;;;5095605;28;20052;-69
2023/03/11 12:10:32;;;;;;;1.63;0.55;;;6.80;1.00;;;;;;5095547;28;20121;-68
2023/03/11 12:12:59;;;;;;;3.13;0.70;;;6.90;99.90;;;;;;5077120;28;20055;-67
2023/03/11 12:15:32;;;;;;;0.85;0.40;;;7.00;99.90;;;;;;5095492;28;20044;-67
2023/03/11 12:18:07;;;;;;;1.02;0.50;;;7.10;1.00;;;;;;5077286;28;20051;-67
2023/03/11 12:20:46;;;;;;;1.40;0.50;;;7.20;99.90;;;;;;5095388;28;20080;-67
2023/03/11 12:23:15;;;;;;;0.85;0.40;;;7.30;99.90;;;;;;5095253;28;20486;-67
2023/03/11 12:25:49;;;;;;;1.45;0.50;;;7.40;99.90;;;;;;5095376;28;20067;-67
2023/03/11 12:28:15;;;;;;;0.45;0.40;;;7.50;99.90;;;;;;5094944;28;20036;-68
2023/03/11 12:30:49;;;;;;;0.57;0.40;;;7.40;99.90;;;;;;5095257;28;20036;-68
2023/03/11 12:33:32;;;;;;;0.20;0.20;;;7.50;1.00;;;;;;5095104;28;20047;-68
2023/03/11 12:35:59;;;;;;;1.27;0.63;;;7.80;1.00;;;;;;5094527;28;20047;-67
2023/03/11 12:38:37;;;;;;;1.38;0.60;;;7.90;3.60;;;;;;5094733;28;20083;-67
2023/03/11 12:41:15;;;;;;;0.90;0.50;;;8.00;99.90;;;;;;5094914;28;20444;-67
2023/03/11 12:43:40;;;;;;;1.05;0.40;;;8.70;99.90;;;;;;5094874;28;20507;-68
2023/03/11 12:46:07;;;;;;;0.25;0.25;;;8.00;99.90;;;;;;5094210;28;20032;-67
2023/03/11 12:48:41;;;;;;;0.93;0.50;;;8.20;99.90;;;;;;5076781;28;20036;-72
2023/03/11 12:51:26;;;;;;;1.25;0.40;;;8.20;99.90;;;;;;5094800;28;20040;-68
2023/03/11 12:53:55;;;;;;;0.43;0.32;;;8.10;99.90;;;;;;5094337;28;20495;-68
2023/03/11 12:56:39;;;;;;;3.47;0.40;;;8.00;99.90;;;;;;5094611;28;20415;-67
2023/03/11 12:59:33;;;;;;;0.50;0.50;;;8.00;99.90;;;;;;5094583;28;20088;-67
2023/03/11 13:02:41;;;;;;;1.17;0.70;;;7.80;99.90;;;;;;5094088;28;20040;-68
2023/03/11 13:05:15;;;;;;;0.80;0.80;;;7.70;94.70;;;;;;5047529;28;20101;-73
2023/03/11 13:07:48;;;;;;;0.25;0.25;;;7.80;1.00;;;;;;5075668;28;20059;-71
2023/03/11 13:10:28;;;;;;;0.77;0.47;;;7.70;63.40;;;;;;5076256;28;20506;-71
2023/03/11 13:12:54;;;;;;;0.65;0.40;;;7.60;99.90;;;;;;5076172;28;20544;-69
2023/03/11 13:15:19;;;;;;;7.50;0.77;;;7.60;1.00;;;;;;5094268;28;20044;-69
2023/03/11 13:18:12;;;;;;;0.60;0.50;;;7.80;55.90;;;;;;5076170;28;20076;-68
2023/03/11 13:20:42;;;;;;;1.63;0.47;;;7.70;99.90;;;;;;5094216;28;20050;-69